createdAt,value
2022-09-09T00:00:57.179Z,54431.12
2022-09-09T00:02:00.262Z,54391.03
2022-09-09T00:03:03.705Z,54372.98
2022-09-09T00:04:07.739Z,54346.92
2022-09-09T00:05:10.523Z,54383.01
2022-09-09T00:06:13.288Z,54359.95
2022-09-09T00:07:15.954Z,54373.99
2022-09-09T00:08:18.730Z,54363.96
2022-09-09T00:09:21.501Z,54285.78
2022-09-09T00:10:24.269Z,54341.91
2022-09-09T00:11:31.165Z,54326.87
2022-09-09T00:12:31.249Z,54333.89
2022-09-09T00:13:34.022Z,54318.86
2022-09-09T00:14:37.104Z,54298.81
2022-09-09T00:15:39.917Z,54298.81
2022-09-09T00:16:43.052Z,54291.79
2022-09-09T00:17:45.827Z,54287.78
2022-09-09T00:18:49.114Z,54293.80
2022-09-09T00:19:52.411Z,54267.74
2022-09-09T00:20:55.269Z,54284.78
2022-09-09T00:21:58.458Z,54260.72
2022-09-09T00:23:01.533Z,54257.71
2022-09-09T00:24:04.812Z,54270.74
2022-09-09T00:25:07.996Z,54245.68
2022-09-09T00:26:11.380Z,54237.66
2022-09-09T00:27:14.409Z,54229.64
2022-09-09T00:28:17.745Z,54224.64
2022-09-09T00:29:20.631Z,54230.65
2022-09-09T00:30:23.799Z,54224.64
2022-09-09T00:31:26.858Z,54200.58
2022-09-09T00:32:30.375Z,54223.63
2022-09-09T00:33:33.244Z,54208.60
2022-09-09T00:34:36.834Z,54202.58
2022-09-09T00:35:39.919Z,54201.58
2022-09-09T00:36:43.101Z,54181.54
2022-09-09T00:37:45.865Z,54167.50
2022-09-09T00:38:48.847Z,54163.49
2022-09-09T00:39:51.678Z,54179.53
2022-09-09T00:40:54.532Z,54172.51
2022-09-09T00:41:57.369Z,54167.50
2022-09-09T00:43:00.557Z,54189.55
2022-09-09T00:44:03.541Z,54166.50
2022-09-09T00:45:06.302Z,54188.55
2022-09-09T00:46:09.211Z,54186.55
2022-09-09T00:47:12.247Z,54199.57
2022-09-09T00:48:15.549Z,54226.64
2022-09-09T00:49:18.523Z,54203.59
2022-09-09T00:50:22.105Z,54220.62
2022-09-09T00:51:25.091Z,54192.56
2022-09-09T00:52:28.063Z,54232.65
2022-09-09T00:53:30.737Z,54169.50
2022-09-09T00:54:33.806Z,54224.64
2022-09-09T00:55:36.886Z,54248.69
2022-09-09T00:56:39.864Z,54202.58
2022-09-09T00:57:42.844Z,54245.68
2022-09-09T00:58:45.620Z,54211.61
2022-09-09T00:59:48.700Z,54246.69
2022-09-09T01:00:51.570Z,54260.72
2022-09-09T01:01:54.936Z,54266.73
2022-09-09T01:02:57.703Z,54267.74
2022-09-09T01:04:00.817Z,54266.73
2022-09-09T01:05:04.012Z,54241.68
2022-09-09T01:06:07.080Z,54269.74
2022-09-09T01:07:09.943Z,54285.78
2022-09-09T01:08:12.824Z,54273.75
2022-09-09T01:09:15.902Z,54286.78
2022-09-09T01:10:19.088Z,54300.81
2022-09-09T01:11:21.746Z,54262.72
2022-09-09T01:12:24.419Z,54301.82
2022-09-09T01:13:27.510Z,54284.78
2022-09-09T01:14:30.479Z,54301.82
2022-09-09T01:15:33.355Z,54294.80
2022-09-09T01:16:36.587Z,54268.74
2022-09-09T01:17:39.511Z,54270.74
2022-09-09T01:18:42.383Z,54300.81
2022-09-09T01:19:45.162Z,54281.77
2022-09-09T01:20:48.028Z,54249.70
2022-09-09T01:21:51.045Z,54272.75
2022-09-09T01:22:54.302Z,54282.77
2022-09-09T01:23:57.164Z,54313.84
2022-09-09T01:25:00.144Z,54296.80
2022-09-09T01:26:03.293Z,54299.81
2022-09-09T01:27:06.424Z,54334.89
2022-09-09T01:28:09.487Z,54377.00
2022-09-09T01:29:12.464Z,54397.04
2022-09-09T01:30:15.569Z,54424.11
2022-09-09T01:31:18.605Z,54496.28
2022-09-09T01:32:21.493Z,54529.36
2022-09-09T01:33:24.465Z,54683.74
2022-09-09T01:34:28.056Z,54756.92
2022-09-09T01:35:31.138Z,54873.21
2022-09-09T01:36:34.228Z,55012.56
2022-09-09T01:37:37.917Z,55175.98
2022-09-09T01:38:41.193Z,57037.23
2022-09-09T01:39:44.146Z,57592.96
2022-09-09T01:40:47.084Z,58231.05
2022-09-09T01:41:49.726Z,58860.20
2022-09-09T01:42:52.617Z,59098.05
2022-09-09T01:43:55.584Z,59269.66
2022-09-09T01:44:58.648Z,59528.61
2022-09-09T01:46:01.743Z,59635.00
2022-09-09T01:47:04.707Z,59653.07
2022-09-09T01:48:07.678Z,59737.38
2022-09-09T01:49:11.067Z,59817.68
2022-09-09T01:50:14.048Z,59797.61
2022-09-09T01:51:17.131Z,59887.95
2022-09-09T01:52:20.105Z,59907.02
2022-09-09T01:53:23.394Z,59990.33
2022-09-09T01:54:26.369Z,60028.48
2022-09-09T01:55:29.440Z,60072.64
2022-09-09T01:56:32.321Z,60186.08
2022-09-09T01:57:35.287Z,60233.26
2022-09-09T01:58:38.169Z,60335.66
2022-09-09T01:59:40.841Z,60505.32
2022-09-09T02:00:43.940Z,60793.46
2022-09-09T02:01:46.696Z,60877.80
2022-09-09T02:02:49.418Z,60950.09
2022-09-09T02:03:52.641Z,60973.18
2022-09-09T02:04:55.531Z,61055.52
2022-09-09T02:05:58.186Z,61164.96
2022-09-09T02:07:00.858Z,61217.18
2022-09-09T02:08:03.625Z,61359.76
2022-09-09T02:09:06.298Z,61496.33
2022-09-09T02:10:09.029Z,61592.73
2022-09-09T02:11:12.049Z,61650.98
2022-09-09T02:12:14.822Z,61794.58
2022-09-09T02:13:17.708Z,61785.54
2022-09-09T02:14:20.579Z,61768.47
2022-09-09T02:15:23.656Z,61798.60
2022-09-09T02:16:26.677Z,61765.46
2022-09-09T02:17:29.608Z,61686.12
2022-09-09T02:18:32.657Z,61680.10
2022-09-09T02:19:35.349Z,61626.88
2022-09-09T02:20:38.320Z,61645.96
2022-09-09T02:21:41.101Z,61628.88
2022-09-09T02:22:44.080Z,61550.55
2022-09-09T02:23:46.849Z,61492.31
2022-09-09T02:24:49.620Z,61485.28
2022-09-09T02:25:52.291Z,61423.02
2022-09-09T02:26:55.063Z,61394.91
2022-09-09T02:27:58.044Z,61484.28
2022-09-09T02:29:00.909Z,61409.97
2022-09-09T02:30:03.992Z,61392.90
2022-09-09T02:31:07.164Z,61360.77
2022-09-09T02:32:09.961Z,61353.74
2022-09-09T02:33:12.928Z,61279.43
2022-09-09T02:34:15.904Z,61216.17
2022-09-09T02:35:18.886Z,61216.17
2022-09-09T02:36:21.753Z,61170.98
2022-09-09T02:37:24.734Z,61175.00
2022-09-09T02:38:27.820Z,61130.82
2022-09-09T02:39:30.637Z,61106.72
2022-09-09T02:40:33.558Z,61064.55
2022-09-09T02:41:36.325Z,61034.43
2022-09-09T02:42:39.206Z,61040.45
2022-09-09T02:43:41.889Z,60988.24
2022-09-09T02:44:44.746Z,60970.17
2022-09-09T02:45:47.599Z,60952.10
2022-09-09T02:46:50.299Z,60964.14
2022-09-09T02:47:53.067Z,60982.22
2022-09-09T02:48:55.629Z,60997.28
2022-09-09T02:49:58.608Z,60987.24
2022-09-09T02:51:01.602Z,60932.02
2022-09-09T02:52:04.159Z,60962.14
2022-09-09T02:53:07.027Z,60974.18
2022-09-09T02:54:09.907Z,60964.14
2022-09-09T02:55:12.882Z,60979.21
2022-09-09T02:56:15.869Z,60914.95
2022-09-09T02:57:18.839Z,60940.05
2022-09-09T02:58:21.819Z,60915.95
2022-09-09T02:59:24.587Z,60883.82
2022-09-09T03:00:27.356Z,60925.99
2022-09-09T03:01:30.085Z,60973.18
2022-09-09T03:02:32.894Z,60982.22
2022-09-09T03:03:35.582Z,60981.21
2022-09-09T03:04:38.547Z,60981.21
2022-09-09T03:05:41.218Z,60981.21
2022-09-09T03:06:44.100Z,60995.27
2022-09-09T03:07:46.768Z,61002.30
2022-09-09T03:08:49.885Z,61006.32
2022-09-09T03:09:52.523Z,61022.38
2022-09-09T03:10:55.179Z,61017.36
2022-09-09T03:11:57.966Z,60994.27
2022-09-09T03:13:00.823Z,61014.35
2022-09-09T03:14:03.599Z,60998.28
2022-09-09T03:15:07.498Z,60996.27
2022-09-09T03:16:10.313Z,61034.43
2022-09-09T03:17:13.146Z,61196.09
2022-09-09T03:18:15.818Z,61269.39
2022-09-09T03:19:18.692Z,61393.90
2022-09-09T03:20:21.366Z,61454.15
2022-09-09T03:21:24.027Z,61489.30
2022-09-09T03:22:26.592Z,61571.64
2022-09-09T03:23:29.160Z,61618.84
2022-09-09T03:24:31.830Z,61595.75
2022-09-09T03:25:34.497Z,61636.92
2022-09-09T03:26:37.171Z,61651.98
2022-09-09T03:27:39.849Z,61686.12
2022-09-09T03:28:42.407Z,61685.12
2022-09-09T03:29:45.279Z,61718.26
2022-09-09T03:30:48.062Z,61781.53
2022-09-09T03:31:50.800Z,61803.62
2022-09-09T03:32:53.610Z,61777.51
2022-09-09T03:33:56.278Z,61647.96
2022-09-09T03:34:59.143Z,61698.18
2022-09-09T03:36:02.019Z,61690.14
2022-09-09T03:37:04.902Z,61690.14
2022-09-09T03:38:07.767Z,61674.07
2022-09-09T03:39:10.641Z,61688.13
2022-09-09T03:40:13.624Z,61667.05
2022-09-09T03:41:16.605Z,61699.18
2022-09-09T03:42:19.376Z,61688.13
2022-09-09T03:43:22.655Z,61693.15
2022-09-09T03:44:25.426Z,61728.30
2022-09-09T03:45:28.461Z,61715.25
2022-09-09T03:46:31.272Z,61749.39
2022-09-09T03:47:34.267Z,61774.50
2022-09-09T03:48:37.619Z,61735.33
2022-09-09T03:49:40.363Z,61719.27
2022-09-09T03:50:43.193Z,61746.38
2022-09-09T03:51:46.005Z,61736.34
2022-09-09T03:52:48.729Z,61746.38
2022-09-09T03:53:51.614Z,61735.33
2022-09-09T03:54:54.283Z,61735.33
2022-09-09T03:55:56.856Z,61722.28
2022-09-09T03:56:59.524Z,61671.06
2022-09-09T03:58:02.178Z,61640.93
2022-09-09T03:59:05.361Z,61628.88
2022-09-09T04:00:08.032Z,61613.82
2022-09-09T04:01:11.062Z,61591.73
2022-09-09T04:02:14.071Z,61729.31
2022-09-09T04:03:16.758Z,61655.00
2022-09-09T04:04:19.422Z,61682.11
2022-09-09T04:05:21.990Z,61596.75
2022-09-09T04:06:24.927Z,61630.89
2022-09-09T04:07:27.641Z,61692.15
2022-09-09T04:08:30.317Z,61628.88
2022-09-09T04:09:33.507Z,61581.69
2022-09-09T04:10:36.266Z,61536.50
2022-09-09T04:11:38.939Z,61512.39
2022-09-09T04:12:41.832Z,61497.33
2022-09-09T04:13:44.490Z,61526.45
2022-09-09T04:14:47.983Z,61428.05
2022-09-09T04:15:50.844Z,61345.70
2022-09-09T04:16:53.441Z,61265.37
2022-09-09T04:17:56.076Z,61208.14
2022-09-09T04:18:59.065Z,61205.12
2022-09-09T04:20:02.254Z,61158.94
2022-09-09T04:21:05.012Z,61116.77
2022-09-09T04:22:07.887Z,61061.54
2022-09-09T04:23:11.067Z,61012.34
2022-09-09T04:24:13.745Z,60954.11
2022-09-09T04:25:17.125Z,60915.95
2022-09-09T04:26:20.110Z,60966.15
2022-09-09T04:27:23.075Z,60986.23
2022-09-09T04:28:26.257Z,61033.43
2022-09-09T04:29:29.239Z,61040.45
2022-09-09T04:30:32.020Z,60969.16
2022-09-09T04:31:34.943Z,60947.08
2022-09-09T04:32:37.762Z,60904.91
2022-09-09T04:33:40.736Z,60767.36
2022-09-09T04:34:43.712Z,60743.26
2022-09-09T04:35:46.279Z,60643.86
2022-09-09T04:36:48.981Z,60616.76
2022-09-09T04:37:51.520Z,60531.42
2022-09-09T04:38:54.183Z,60487.25
2022-09-09T04:39:56.924Z,60493.27
2022-09-09T04:40:59.931Z,60560.54
2022-09-09T04:42:02.811Z,60501.30
2022-09-09T04:43:05.793Z,60534.43
2022-09-09T04:44:17.269Z,58431.73
2022-09-09T04:45:20.141Z,60458.13
2022-09-09T04:46:23.018Z,60491.26
2022-09-09T04:47:25.783Z,60387.86
2022-09-09T04:48:28.818Z,60395.89
2022-09-09T04:49:31.642Z,60336.66
2022-09-09T04:50:34.819Z,60387.86
2022-09-09T04:51:37.692Z,60227.24
2022-09-09T04:52:40.570Z,60209.17
2022-09-09T04:53:43.135Z,60187.08
2022-09-09T04:54:46.301Z,60147.93
2022-09-09T04:55:48.985Z,60238.28
2022-09-09T04:56:51.865Z,60287.47
2022-09-09T04:57:54.530Z,60358.75
2022-09-09T04:58:57.202Z,60315.58
2022-09-09T04:59:59.870Z,60385.85
2022-09-09T05:01:02.748Z,60434.04
2022-09-09T05:02:05.404Z,60351.72
2022-09-09T05:03:07.983Z,60329.63
2022-09-09T05:04:10.659Z,60278.43
2022-09-09T05:05:13.218Z,60198.13
2022-09-09T05:06:15.884Z,60100.75
2022-09-09T05:07:18.454Z,60056.58
2022-09-09T05:08:21.127Z,60078.67
2022-09-09T05:09:23.699Z,60057.59
2022-09-09T05:10:26.580Z,60023.46
2022-09-09T05:11:29.250Z,59920.07
2022-09-09T05:12:32.021Z,59958.21
2022-09-09T05:13:38.371Z,59972.27
2022-09-09T05:14:39.087Z,59991.34
2022-09-09T05:15:41.655Z,59990.33
2022-09-09T05:16:44.577Z,59988.32
2022-09-09T05:17:47.214Z,59992.34
2022-09-09T05:18:50.195Z,59998.36
2022-09-09T05:19:52.960Z,59936.12
2022-09-09T05:20:55.832Z,59902.00
2022-09-09T05:21:58.603Z,59903.00
2022-09-09T05:23:01.388Z,59771.51
2022-09-09T05:24:03.941Z,59638.01
2022-09-09T05:25:06.823Z,59500.50
2022-09-09T05:26:09.806Z,59430.25
2022-09-09T05:27:12.891Z,59376.05
2022-09-09T05:28:15.850Z,59326.87
2022-09-09T05:29:18.720Z,59281.71
2022-09-09T05:30:21.700Z,59216.47
2022-09-09T05:31:26.998Z,59225.50
2022-09-09T05:32:29.209Z,59209.45
2022-09-09T05:33:32.168Z,59326.87
2022-09-09T05:34:35.154Z,59397.12
2022-09-09T05:35:38.224Z,59370.03
2022-09-09T05:36:41.307Z,59374.04
2022-09-09T05:37:43.970Z,59319.84
2022-09-09T05:38:46.843Z,59291.74
2022-09-09T05:39:49.556Z,59223.50
2022-09-09T05:40:52.596Z,59189.37
2022-09-09T05:41:55.373Z,59239.55
2022-09-09T05:42:58.138Z,59213.46
2022-09-09T05:44:01.016Z,59207.44
2022-09-09T05:45:03.793Z,59237.55
2022-09-09T05:46:06.864Z,59219.48
2022-09-09T05:47:10.154Z,59167.30
2022-09-09T05:48:12.924Z,59189.37
2022-09-09T05:49:16.019Z,59207.44
2022-09-09T05:50:18.981Z,59202.42
2022-09-09T05:51:21.858Z,59147.22
2022-09-09T05:52:24.938Z,59209.45
2022-09-09T05:53:27.600Z,59405.16
2022-09-09T05:54:30.385Z,59538.64
2022-09-09T05:55:33.151Z,59710.28
2022-09-09T05:56:36.029Z,59889.95
2022-09-09T05:57:38.897Z,60016.43
2022-09-09T05:58:41.818Z,60159.98
2022-09-09T05:59:44.541Z,60167.01
2022-09-09T06:00:47.415Z,60295.50
2022-09-09T06:01:50.182Z,60434.04
2022-09-09T06:02:53.013Z,60518.37
2022-09-09T06:03:55.945Z,60630.81
2022-09-09T06:05:00.610Z,60765.35
2022-09-09T06:06:03.028Z,60895.87
2022-09-09T06:07:06.105Z,61049.49
2022-09-09T06:08:09.180Z,61263.36
2022-09-09T06:09:12.153Z,61524.45
2022-09-09T06:10:15.029Z,61736.34
2022-09-09T06:11:17.807Z,61892.00
2022-09-09T06:12:20.471Z,62082.82
2022-09-09T06:13:23.145Z,62260.59
2022-09-09T06:14:26.022Z,62365.05
2022-09-09T06:15:28.788Z,62442.39
2022-09-09T06:16:31.812Z,62468.50
2022-09-09T06:17:34.741Z,62448.41
2022-09-09T06:18:37.776Z,62450.42
2022-09-09T06:19:40.701Z,62436.36
2022-09-09T06:20:43.786Z,62425.31
2022-09-09T06:21:46.446Z,62449.42
2022-09-09T06:22:49.523Z,62455.45
2022-09-09T06:23:52.300Z,62466.49
2022-09-09T06:24:55.079Z,62473.52
2022-09-09T06:25:57.842Z,62502.65
2022-09-09T06:27:00.852Z,62490.60
2022-09-09T06:28:03.900Z,62098.89
2022-09-09T06:29:06.887Z,62060.72
2022-09-09T06:30:09.759Z,62034.61
2022-09-09T06:31:12.633Z,61976.36
2022-09-09T06:32:15.296Z,61959.29
2022-09-09T06:33:18.282Z,61995.44
2022-09-09T06:34:21.457Z,62024.57
2022-09-09T06:35:24.429Z,62027.58
2022-09-09T06:36:27.301Z,62043.65
2022-09-09T06:37:30.074Z,62059.72
2022-09-09T06:38:33.095Z,62044.65
2022-09-09T06:39:35.892Z,62013.52
2022-09-09T06:40:38.810Z,61954.27
2022-09-09T06:41:41.368Z,62010.50
2022-09-09T06:42:44.353Z,61992.43
2022-09-09T06:43:46.909Z,61994.44
2022-09-09T06:44:50.301Z,61980.37
2022-09-09T06:45:53.073Z,61978.37
2022-09-09T06:46:55.920Z,62018.54
2022-09-09T06:47:58.523Z,61971.34
2022-09-09T06:49:01.420Z,61958.28
2022-09-09T06:50:04.065Z,61979.37
2022-09-09T06:51:07.029Z,61970.34
2022-09-09T06:52:10.431Z,61946.23
2022-09-09T06:53:13.302Z,61946.23
2022-09-09T06:54:16.172Z,61938.20
2022-09-09T06:55:18.948Z,61955.27
2022-09-09T06:56:21.617Z,61968.32
2022-09-09T06:57:36.853Z,61959.29
2022-09-09T06:58:28.600Z,61953.26
2022-09-09T06:59:31.468Z,61954.27
2022-09-09T07:00:34.333Z,62009.50
2022-09-09T07:01:36.988Z,61979.37
2022-09-09T07:02:39.577Z,62032.60
2022-09-09T07:03:42.454Z,62051.68
2022-09-09T07:04:45.224Z,62008.50
2022-09-09T07:05:49.223Z,62043.65
2022-09-09T07:06:52.129Z,62012.52
2022-09-09T07:07:54.778Z,61996.45
2022-09-09T07:08:57.551Z,61913.09
2022-09-09T07:10:00.216Z,61873.92
2022-09-09T07:11:02.883Z,61855.84
2022-09-09T07:12:05.553Z,61838.77
2022-09-09T07:13:08.250Z,61833.75
2022-09-09T07:14:10.789Z,61796.59
2022-09-09T07:15:13.459Z,61755.42
2022-09-09T07:16:16.413Z,61765.46
2022-09-09T07:17:19.116Z,61737.34
2022-09-09T07:18:21.786Z,61772.49
2022-09-09T07:19:24.341Z,61771.49
2022-09-09T07:20:27.016Z,61741.36
2022-09-09T07:21:29.806Z,61777.51
2022-09-09T07:22:32.764Z,61765.46
2022-09-09T07:23:36.373Z,61812.66
2022-09-09T07:24:39.447Z,61799.61
2022-09-09T07:25:42.306Z,61787.55
2022-09-09T07:26:44.983Z,61780.52
2022-09-09T07:27:47.647Z,61753.41
2022-09-09T07:28:50.632Z,61725.29
2022-09-09T07:29:54.839Z,61726.30
2022-09-09T07:30:57.517Z,61676.08
2022-09-09T07:32:00.585Z,61671.06
2022-09-09T07:33:03.762Z,61636.92
2022-09-09T07:34:06.653Z,61558.59
2022-09-09T07:35:09.510Z,61499.34
2022-09-09T07:36:12.287Z,61454.15
2022-09-09T07:37:15.266Z,61370.81
2022-09-09T07:38:18.244Z,61336.67
2022-09-09T07:39:21.125Z,61177.01
2022-09-09T07:40:24.298Z,61189.06
2022-09-09T07:41:27.278Z,61073.59
2022-09-09T07:42:30.364Z,61054.51
2022-09-09T07:43:33.328Z,61004.30
2022-09-09T07:44:36.211Z,60951.09
2022-09-09T07:45:39.096Z,60877.80
2022-09-09T07:46:41.791Z,60867.76
2022-09-09T07:47:44.415Z,60795.46
2022-09-09T07:48:47.186Z,60760.33
2022-09-09T07:49:49.861Z,60705.11
2022-09-09T07:50:52.636Z,60632.82
2022-09-09T07:51:55.402Z,60599.69
2022-09-09T07:52:58.177Z,60552.50
2022-09-09T07:54:00.904Z,60499.30
2022-09-09T07:55:04.025Z,60401.91
2022-09-09T07:56:07.017Z,60295.50
2022-09-09T07:57:09.879Z,60232.26
2022-09-09T07:58:12.963Z,60226.23
2022-09-09T07:59:15.957Z,60147.93
2022-09-09T08:00:19.018Z,60095.73
2022-09-09T08:01:21.832Z,60017.44
2022-09-09T08:02:24.564Z,59975.27
2022-09-09T08:03:27.511Z,59875.90
2022-09-09T08:04:30.310Z,59813.66
2022-09-09T08:05:33.190Z,59781.55
2022-09-09T08:06:36.052Z,59709.28
2022-09-09T08:07:39.037Z,59669.12
2022-09-09T08:08:42.215Z,59520.58
2022-09-09T08:09:44.994Z,59474.41
2022-09-09T08:10:47.864Z,59375.05
2022-09-09T08:11:50.531Z,59293.75
2022-09-09T08:13:14.699Z,59213.46
2022-09-09T08:14:02.130Z,59143.21
2022-09-09T08:15:01.825Z,59026.79
2022-09-09T08:16:04.641Z,58901.35
2022-09-09T08:17:07.365Z,58737.78
2022-09-09T08:18:09.933Z,58553.14
2022-09-09T08:19:12.493Z,58371.52
2022-09-09T08:20:15.297Z,58124.69
2022-09-09T08:21:19.068Z,58007.30
2022-09-09T08:22:21.945Z,57899.95
2022-09-09T08:23:25.021Z,57792.60
2022-09-09T08:24:27.593Z,57710.34
2022-09-09T08:25:30.475Z,57646.13
2022-09-09T08:26:33.235Z,57686.26
2022-09-09T08:27:36.316Z,57729.40
2022-09-09T08:28:39.294Z,57860.82
2022-09-09T08:29:42.083Z,57993.26
2022-09-09T08:30:44.938Z,58174.86
2022-09-09T08:31:47.606Z,58460.82
2022-09-09T08:32:53.362Z,58751.82
2022-09-09T08:33:54.888Z,59008.73
2022-09-09T08:35:01.129Z,59161.27
2022-09-09T08:36:01.890Z,59327.87
2022-09-09T08:37:04.745Z,59459.35
2022-09-09T08:38:10.945Z,59662.10
2022-09-09T08:39:12.165Z,59802.62
2022-09-09T08:40:15.168Z,59940.14
2022-09-09T08:41:18.081Z,60036.51
2022-09-09T08:42:20.750Z,60176.04
2022-09-09T08:43:23.430Z,60316.58
2022-09-09T08:44:26.204Z,60407.94
2022-09-09T08:45:28.969Z,60517.37
2022-09-09T08:46:31.915Z,60707.12
2022-09-09T08:47:34.519Z,60833.62
2022-09-09T08:48:37.382Z,60982.22
2022-09-09T08:49:40.088Z,61049.49
2022-09-09T08:50:42.731Z,61135.84
2022-09-09T08:51:45.504Z,61195.08
2022-09-09T08:52:48.503Z,61267.38
2022-09-09T08:53:51.175Z,61269.39
2022-09-09T08:54:53.914Z,61363.78
2022-09-09T08:55:56.590Z,61422.02
2022-09-09T08:56:59.171Z,61484.28
2022-09-09T08:58:04.863Z,61577.67
2022-09-09T08:59:13.124Z,61638.93
2022-09-09T09:00:15.667Z,61693.15
2022-09-09T09:01:18.651Z,61805.63
2022-09-09T09:02:21.323Z,61803.62
2022-09-09T09:03:29.359Z,61892.00
2022-09-09T09:04:31.904Z,61889.99
2022-09-09T09:05:34.646Z,61909.07
2022-09-09T09:06:37.286Z,61937.19
2022-09-09T09:07:39.882Z,61956.27
2022-09-09T09:08:42.867Z,61942.21
2022-09-09T09:09:45.521Z,61957.28
2022-09-09T09:10:48.504Z,61963.30
2022-09-09T09:11:51.684Z,62000.46
2022-09-09T09:12:54.368Z,61990.42
2022-09-09T09:13:57.026Z,62036.62
2022-09-09T09:14:59.700Z,62025.57
2022-09-09T09:16:02.628Z,62025.57
2022-09-09T09:17:05.772Z,62019.55
2022-09-09T09:18:10.265Z,62012.52
2022-09-09T09:19:13.040Z,62018.54
2022-09-09T09:20:15.929Z,62027.58
2022-09-09T09:21:18.822Z,62027.58
2022-09-09T09:22:21.971Z,62023.56
2022-09-09T09:23:24.848Z,62020.55
2022-09-09T09:24:27.920Z,62017.54
2022-09-09T09:25:30.694Z,62026.58
2022-09-09T09:26:33.676Z,62027.58
2022-09-09T09:27:37.054Z,62026.58
2022-09-09T09:28:40.036Z,62031.60
2022-09-09T09:30:10.511Z,62029.59
2022-09-09T09:30:47.069Z,62016.53
2022-09-09T09:31:49.683Z,62014.52
2022-09-09T09:32:52.352Z,62000.46
2022-09-09T09:33:55.022Z,62015.53
2022-09-09T09:34:59.712Z,62024.57
2022-09-09T09:36:02.413Z,62008.50
2022-09-09T09:37:06.300Z,61980.37
2022-09-09T09:40:17.898Z,61980.37
2022-09-09T09:41:20.674Z,61989.41
2022-09-09T09:42:24.046Z,61989.41
2022-09-09T09:43:27.037Z,61960.29
2022-09-09T09:44:29.737Z,61984.39
2022-09-09T09:45:32.590Z,61957.28
2022-09-09T09:46:35.421Z,61947.23
2022-09-09T09:47:38.334Z,61973.35
2022-09-09T09:48:41.214Z,61947.23
2022-09-09T09:49:43.771Z,61924.14
2022-09-09T09:50:49.085Z,61978.37
2022-09-09T09:51:51.685Z,61950.25
2022-09-09T09:52:54.344Z,61940.21
2022-09-09T09:53:57.017Z,61937.19
2022-09-09T09:55:01.846Z,61939.20
2022-09-09T09:56:04.198Z,61955.27
2022-09-09T09:57:07.110Z,61924.14
2022-09-09T09:58:09.845Z,61948.24
2022-09-09T09:59:18.007Z,61934.18
2022-09-09T10:00:17.271Z,61961.29
2022-09-09T10:01:20.229Z,61964.31
2022-09-09T10:02:23.182Z,61942.21
2022-09-09T10:03:26.162Z,61950.25
2022-09-09T10:04:29.283Z,61918.11
2022-09-09T10:05:36.132Z,61962.30
2022-09-09T10:06:36.266Z,61972.34
2022-09-09T10:07:38.784Z,61929.16
2022-09-09T10:08:41.484Z,61979.37
2022-09-09T10:09:44.228Z,61933.18
2022-09-09T10:10:48.119Z,61970.34
2022-09-09T10:11:50.996Z,61994.44
2022-09-09T10:12:53.671Z,61946.23
2022-09-09T10:13:56.445Z,61975.36
2022-09-09T10:14:59.120Z,61938.20
2022-09-09T10:16:05.179Z,61984.39
2022-09-09T10:17:05.887Z,61954.27
2022-09-09T10:18:08.667Z,61937.19
2022-09-09T10:19:11.552Z,61987.41
2022-09-09T10:20:14.625Z,61930.16
2022-09-09T10:21:17.487Z,61955.27
2022-09-09T10:22:20.548Z,61962.30
2022-09-09T10:23:23.437Z,61974.35
2022-09-09T10:24:26.348Z,61964.31
2022-09-09T10:25:29.596Z,61972.34
2022-09-09T10:26:38.231Z,61962.30
2022-09-09T10:27:41.392Z,61960.29
2022-09-09T10:28:44.269Z,61994.44
2022-09-09T10:29:46.848Z,61978.37
2022-09-09T10:30:49.896Z,61981.38
2022-09-09T10:31:52.584Z,61980.37
2022-09-09T10:32:55.160Z,61964.31
2022-09-09T10:33:57.945Z,61954.27
2022-09-09T10:35:00.701Z,61978.37
2022-09-09T10:36:03.778Z,61980.37
2022-09-09T10:37:06.647Z,61977.36
2022-09-09T10:38:09.419Z,61937.19
2022-09-09T10:39:12.084Z,61970.34
2022-09-09T10:40:15.133Z,61938.20
2022-09-09T10:41:18.066Z,61950.25
2022-09-09T10:42:21.120Z,61975.36
2022-09-09T10:43:24.104Z,61942.21
2022-09-09T10:44:27.185Z,61965.31
2022-09-09T10:45:30.163Z,61996.45
2022-09-09T10:46:33.235Z,61933.18
2022-09-09T10:47:36.107Z,61950.25
2022-09-09T10:48:38.985Z,61965.31
2022-09-09T10:49:41.757Z,61951.25
2022-09-09T10:51:03.528Z,61947.23
2022-09-09T10:51:48.940Z,61992.43
2022-09-09T10:52:51.916Z,61945.23
2022-09-09T10:53:54.585Z,61971.34
2022-09-09T10:54:57.257Z,61956.27
2022-09-09T10:55:59.947Z,61941.21
2022-09-09T10:57:02.695Z,62000.46
2022-09-09T10:58:05.589Z,61972.34
2022-09-09T10:59:08.767Z,61954.27
2022-09-09T11:00:11.633Z,61967.32
2022-09-09T11:01:14.546Z,61947.23
2022-09-09T11:02:17.485Z,61969.33
2022-09-09T11:03:20.353Z,61966.32
2022-09-09T11:04:23.269Z,61964.31
2022-09-09T11:05:26.102Z,61976.36
2022-09-09T11:06:28.894Z,61990.42
2022-09-09T11:07:31.967Z,61974.35
2022-09-09T11:08:34.868Z,61973.35
2022-09-09T11:09:37.499Z,61936.19
2022-09-09T11:10:40.114Z,61991.43
2022-09-09T11:11:42.884Z,61938.20
2022-09-09T11:12:45.613Z,61996.45
2022-09-09T11:13:51.416Z,61974.35
2022-09-09T11:14:53.919Z,61954.27
2022-09-09T11:15:56.694Z,61961.29
2022-09-09T11:16:59.429Z,61995.44
2022-09-09T11:18:02.031Z,61966.32
2022-09-09T11:19:04.705Z,61960.29
2022-09-09T11:20:07.268Z,61954.27
2022-09-09T11:21:09.937Z,61968.32
2022-09-09T11:22:12.710Z,61966.32
2022-09-09T11:23:15.891Z,61914.09
2022-09-09T11:24:18.558Z,61942.21
2022-09-09T11:25:21.333Z,61916.10
2022-09-09T11:26:24.007Z,61939.20
2022-09-09T11:27:26.691Z,61922.13
2022-09-09T11:28:29.345Z,61938.20
2022-09-09T11:29:32.019Z,61936.19
2022-09-09T11:31:38.838Z,61954.27
2022-09-09T11:32:41.458Z,61927.15
2022-09-09T11:33:44.128Z,61898.02
2022-09-09T11:34:46.699Z,61921.12
2022-09-09T11:35:49.483Z,61892.00
2022-09-09T11:36:52.241Z,61934.18
2022-09-09T11:37:54.940Z,61924.14
2022-09-09T11:38:57.890Z,61883.96
2022-09-09T11:40:00.719Z,61880.95
2022-09-09T11:41:03.346Z,61905.05
2022-09-09T11:42:06.204Z,61889.99
2022-09-09T11:43:08.979Z,61869.90
2022-09-09T11:44:12.053Z,61864.88
2022-09-09T11:45:14.928Z,61882.96
2022-09-09T11:46:17.632Z,61899.03
2022-09-09T11:47:20.469Z,61902.04
2022-09-09T11:48:23.349Z,61908.07
2022-09-09T11:49:26.436Z,61874.93
2022-09-09T11:50:29.206Z,61883.96
2022-09-09T11:51:32.284Z,61878.95
2022-09-09T11:52:35.158Z,61869.90
2022-09-09T11:53:38.027Z,61917.11
2022-09-09T11:54:41.515Z,61894.01
2022-09-09T11:55:44.089Z,61885.97
2022-09-09T11:56:46.960Z,61920.12
2022-09-09T11:57:49.835Z,61901.04
2022-09-09T11:58:52.822Z,61900.03
2022-09-09T11:59:55.682Z,61860.87
2022-09-09T12:00:58.559Z,61906.06
2022-09-09T12:02:01.286Z,61863.88
2022-09-09T12:03:03.901Z,61847.81
2022-09-09T12:04:07.071Z,61804.63
2022-09-09T12:05:12.718Z,61786.55
2022-09-09T12:06:15.624Z,61794.58
2022-09-09T12:07:18.469Z,61781.53
2022-09-09T12:08:21.141Z,61810.65
2022-09-09T12:09:23.725Z,61783.54
2022-09-09T12:10:26.283Z,61769.48
2022-09-09T12:11:28.947Z,61768.47
2022-09-09T12:12:31.510Z,61787.55
2022-09-09T12:13:34.283Z,61758.43
2022-09-09T12:14:36.970Z,61781.53
2022-09-09T12:15:39.620Z,61780.52
2022-09-09T12:16:42.436Z,61806.64
2022-09-09T12:17:45.182Z,61767.47
2022-09-09T12:18:48.009Z,61775.50
2022-09-09T12:19:50.634Z,61750.39
2022-09-09T12:20:53.797Z,61765.46
2022-09-09T12:21:56.470Z,61744.37
2022-09-09T12:22:59.231Z,61749.39